createdAt,value
2018-03-18T00:00:51.082Z,0
2018-03-18T00:01:53.501Z,0
2018-03-18T00:02:55.917Z,0
2018-03-18T00:03:58.323Z,0
2018-03-18T00:05:00.731Z,0
2018-03-18T00:06:03.164Z,0
2018-03-18T00:07:05.574Z,0
2018-03-18T00:08:07.986Z,0
2018-03-18T00:09:10.404Z,0
2018-03-18T00:10:12.817Z,0
2018-03-18T00:11:15.241Z,0
2018-03-18T00:12:17.665Z,0
2018-03-18T00:13:20.451Z,0
2018-03-18T00:14:22.862Z,0
2018-03-18T00:15:25.299Z,0
2018-03-18T00:16:27.997Z,0
2018-03-18T00:17:30.410Z,0
2018-03-18T00:18:32.830Z,0
2018-03-18T00:19:35.245Z,0
2018-03-18T00:20:37.661Z,0
2018-03-18T00:21:40.371Z,0
2018-03-18T00:22:42.775Z,0
2018-03-18T00:23:45.194Z,0
2018-03-18T00:24:47.615Z,0
2018-03-18T00:25:50.024Z,0
2018-03-18T00:26:52.446Z,0
2018-03-18T00:27:55.149Z,0
2018-03-18T00:28:57.553Z,0
2018-03-18T00:29:59.984Z,0
2018-03-18T00:31:02.401Z,0
2018-03-18T00:32:04.797Z,0
2018-03-18T00:33:07.210Z,0
2018-03-18T00:34:09.626Z,0
2018-03-18T00:35:12.046Z,0
2018-03-18T00:36:14.463Z,0
2018-03-18T00:37:16.866Z,0
2018-03-18T00:38:19.278Z,0
2018-03-18T00:39:22.001Z,0
2018-03-18T00:40:24.708Z,0
2018-03-18T00:41:27.117Z,0
2018-03-18T00:42:29.827Z,0
2018-03-18T00:43:32.530Z,0
2018-03-18T00:44:35.230Z,0
2018-03-18T00:45:37.928Z,0
2018-03-18T00:46:40.351Z,0
2018-03-18T00:47:42.762Z,0
2018-03-18T00:48:45.465Z,0
2018-03-18T00:49:47.880Z,0
2018-03-18T00:50:50.302Z,0
2018-03-18T00:51:52.716Z,0
2018-03-18T00:52:55.136Z,0
2018-03-18T00:53:57.543Z,0
2018-03-18T00:54:59.965Z,0
2018-03-18T00:56:02.971Z,0
2018-03-18T00:57:05.389Z,0
2018-03-18T00:58:08.674Z,0
2018-03-18T00:59:11.386Z,0
2018-03-18T01:00:13.797Z,0
2018-03-18T01:01:16.224Z,0
2018-03-18T01:02:18.646Z,0
2018-03-18T01:03:21.066Z,0
2018-03-18T01:04:23.479Z,0
2018-03-18T01:05:25.906Z,0
2018-03-18T01:06:28.613Z,0
2018-03-18T01:07:31.023Z,0
2018-03-18T01:08:33.444Z,0
2018-03-18T01:09:35.864Z,0
2018-03-18T01:10:38.278Z,0
2018-03-18T01:11:40.706Z,0
2018-03-18T01:12:43.102Z,0
2018-03-18T01:13:45.511Z,0
2018-03-18T01:14:47.950Z,0
2018-03-18T01:15:50.353Z,0
2018-03-18T01:16:52.771Z,0
2018-03-18T01:17:55.181Z,0
2018-03-18T01:18:57.599Z,0
2018-03-18T01:20:00.292Z,0
2018-03-18T01:21:02.719Z,0
2018-03-18T01:22:05.407Z,0
2018-03-18T01:23:07.827Z,0
2018-03-18T01:24:10.246Z,0
2018-03-18T01:25:12.653Z,0
2018-03-18T01:26:15.068Z,0
2018-03-18T01:27:17.488Z,0
2018-03-18T01:28:19.895Z,0
2018-03-18T01:29:22.310Z,0
2018-03-18T01:30:24.718Z,0
2018-03-18T01:31:27.139Z,0
2018-03-18T01:32:29.556Z,0
2018-03-18T01:33:31.979Z,0
2018-03-18T01:34:34.386Z,0
2018-03-18T01:35:36.811Z,0
2018-03-18T01:36:39.223Z,0
2018-03-18T01:37:41.926Z,0
2018-03-18T01:38:44.650Z,0
2018-03-18T01:39:47.062Z,0
2018-03-18T01:40:49.480Z,0
2018-03-18T01:41:52.178Z,0
2018-03-18T01:42:54.591Z,0
2018-03-18T01:43:57.011Z,0
2018-03-18T01:44:59.420Z,0
2018-03-18T01:46:01.844Z,0
2018-03-18T01:47:04.270Z,0
2018-03-18T01:48:06.674Z,0
2018-03-18T01:49:09.102Z,0
2018-03-18T01:50:11.516Z,0
2018-03-18T01:51:13.937Z,0
2018-03-18T01:52:16.643Z,0
2018-03-18T01:53:19.060Z,0
2018-03-18T01:54:21.746Z,0
2018-03-18T01:55:24.173Z,0
2018-03-18T01:56:26.586Z,0
2018-03-18T01:57:28.988Z,0
2018-03-18T01:58:31.407Z,0
2018-03-18T01:59:33.821Z,0
2018-03-18T02:00:36.248Z,0
2018-03-18T02:01:38.665Z,0
2018-03-18T02:02:41.076Z,0
2018-03-18T02:03:43.489Z,0
2018-03-18T02:04:46.187Z,0
2018-03-18T02:05:48.617Z,0
2018-03-18T02:06:51.024Z,0
2018-03-18T02:07:53.444Z,0
2018-03-18T02:08:55.852Z,0
2018-03-18T02:09:58.283Z,0
2018-03-18T02:11:00.986Z,0
2018-03-18T02:12:03.396Z,0
2018-03-18T02:13:06.416Z,0
2018-03-18T02:14:08.825Z,0
2018-03-18T02:15:11.245Z,0
2018-03-18T02:16:13.666Z,0
2018-03-18T02:17:16.356Z,0
2018-03-18T02:18:18.773Z,0
2018-03-18T02:19:21.199Z,0
2018-03-18T02:20:23.597Z,0
2018-03-18T02:21:26.034Z,0
2018-03-18T02:22:28.442Z,0
2018-03-18T02:23:30.853Z,0
2018-03-18T02:24:33.269Z,0
2018-03-18T02:25:35.676Z,0
2018-03-18T02:26:38.084Z,0
2018-03-18T02:27:40.799Z,0
2018-03-18T02:28:43.209Z,0
2018-03-18T02:29:45.629Z,0
2018-03-18T02:30:48.076Z,0
2018-03-18T02:31:50.449Z,0
2018-03-18T02:32:52.863Z,0
2018-03-18T02:33:55.584Z,0
2018-03-18T02:34:58.281Z,0
2018-03-18T02:36:00.997Z,0
2018-03-18T02:37:03.410Z,0
2018-03-18T02:38:05.827Z,0
2018-03-18T02:39:08.237Z,0
2018-03-18T02:40:10.951Z,0
2018-03-18T02:41:13.362Z,0
2018-03-18T02:42:15.772Z,0
2018-03-18T02:43:18.187Z,0
2018-03-18T02:44:20.606Z,0
2018-03-18T02:45:23.010Z,0
2018-03-18T02:46:25.427Z,0
2018-03-18T02:47:27.854Z,0
2018-03-18T02:48:30.263Z,0
2018-03-18T02:49:32.675Z,0
2018-03-18T02:50:35.391Z,0
2018-03-18T02:51:37.800Z,0
2018-03-18T02:52:40.513Z,0
2018-03-18T02:53:42.929Z,0
2018-03-18T02:54:45.329Z,0
2018-03-18T02:55:47.755Z,0
2018-03-18T02:56:50.163Z,0
2018-03-18T02:57:52.575Z,0
2018-03-18T02:58:54.999Z,0
2018-03-18T02:59:57.398Z,0
2018-03-18T03:00:59.808Z,0
2018-03-18T03:02:02.532Z,0
2018-03-18T03:03:04.944Z,0
2018-03-18T03:04:07.367Z,0
2018-03-18T03:05:09.783Z,0
2018-03-18T03:06:12.198Z,0
2018-03-18T03:07:14.625Z,0
2018-03-18T03:08:17.327Z,0
2018-03-18T03:09:19.734Z,0
2018-03-18T03:10:22.159Z,0
2018-03-18T03:11:24.567Z,0
2018-03-18T03:12:26.985Z,0
2018-03-18T03:13:29.393Z,0
2018-03-18T03:14:31.812Z,0
2018-03-18T03:15:34.225Z,0
2018-03-18T03:16:37.214Z,0
2018-03-18T03:17:39.624Z,0
2018-03-18T03:18:42.049Z,0
2018-03-18T03:19:44.456Z,0
2018-03-18T03:20:46.861Z,0
2018-03-18T03:21:49.276Z,0
2018-03-18T03:22:51.695Z,0
2018-03-18T03:23:54.104Z,0
2018-03-18T03:24:56.523Z,0
2018-03-18T03:25:58.927Z,0
2018-03-18T03:27:01.355Z,0
2018-03-18T03:28:04.040Z,0
2018-03-18T03:29:06.466Z,0
2018-03-18T03:30:08.873Z,0
2018-03-18T03:31:11.293Z,0
2018-03-18T03:32:14.018Z,0
2018-03-18T03:33:16.446Z,0
2018-03-18T03:34:18.856Z,0
2018-03-18T03:35:21.277Z,0
2018-03-18T03:36:23.683Z,0
2018-03-18T03:37:26.094Z,0
2018-03-18T03:38:28.509Z,0
2018-03-18T03:39:30.921Z,0
2018-03-18T03:40:33.324Z,0
2018-03-18T03:41:35.747Z,0
2018-03-18T03:42:38.168Z,0
2018-03-18T03:43:40.869Z,0
2018-03-18T03:44:43.289Z,0
2018-03-18T03:45:45.698Z,0
2018-03-18T03:46:48.112Z,0
2018-03-18T03:47:50.517Z,0
2018-03-18T03:48:52.932Z,0
2018-03-18T03:49:55.651Z,0
2018-03-18T03:50:58.067Z,0
2018-03-18T03:52:00.485Z,0
2018-03-18T03:53:03.193Z,0
2018-03-18T03:54:05.925Z,0
2018-03-18T03:55:08.333Z,0
2018-03-18T03:56:11.319Z,0
2018-03-18T03:57:13.744Z,0
2018-03-18T03:58:16.159Z,0
2018-03-18T03:59:18.569Z,0
2018-03-18T04:00:20.986Z,0
2018-03-18T04:01:23.400Z,0
2018-03-18T04:02:25.805Z,0
2018-03-18T04:03:28.226Z,0
2018-03-18T04:04:30.632Z,0
2018-03-18T04:05:33.341Z,0
2018-03-18T04:06:35.749Z,0
2018-03-18T04:07:38.170Z,0
2018-03-18T04:08:40.573Z,0
2018-03-18T04:09:42.992Z,0
2018-03-18T04:10:45.405Z,0
2018-03-18T04:11:47.828Z,0
2018-03-18T04:12:50.524Z,0
2018-03-18T04:13:52.951Z,0
2018-03-18T04:14:55.362Z,0
2018-03-18T04:15:57.766Z,0
2018-03-18T04:17:00.182Z,0
2018-03-18T04:18:02.904Z,0
2018-03-18T04:19:05.611Z,0
2018-03-18T04:20:08.022Z,0
2018-03-18T04:21:10.435Z,0
2018-03-18T04:22:12.844Z,0
2018-03-18T04:23:15.276Z,0
2018-03-18T04:24:17.692Z,0
2018-03-18T04:25:20.097Z,0
2018-03-18T04:26:22.516Z,0
2018-03-18T04:27:25.223Z,0
2018-03-18T04:28:27.627Z,0
2018-03-18T04:29:30.036Z,0
2018-03-18T04:30:32.459Z,0
2018-03-18T04:31:34.865Z,0
2018-03-18T04:32:37.288Z,0
2018-03-18T04:33:39.698Z,0
2018-03-18T04:34:42.109Z,0
2018-03-18T04:35:44.533Z,0
2018-03-18T04:36:47.232Z,0
2018-03-18T04:37:49.939Z,0
2018-03-18T04:38:52.351Z,0
2018-03-18T04:39:54.767Z,0
2018-03-18T04:40:57.184Z,0
2018-03-18T04:41:59.609Z,0
2018-03-18T04:43:02.019Z,0
2018-03-18T04:44:04.429Z,0
2018-03-18T04:45:06.844Z,0
2018-03-18T04:46:09.265Z,0
2018-03-18T04:47:11.665Z,4
2018-03-18T04:48:14.097Z,0
2018-03-18T04:49:16.489Z,0
2018-03-18T04:50:18.904Z,4
2018-03-18T04:51:21.325Z,4
2018-03-18T04:52:24.032Z,4
2018-03-18T04:53:26.453Z,4
2018-03-18T04:54:28.874Z,8
2018-03-18T04:55:31.288Z,8
2018-03-18T04:56:33.705Z,8
2018-03-18T04:57:36.148Z,12
2018-03-18T04:58:38.537Z,12
2018-03-18T04:59:40.946Z,16
2018-03-18T05:00:43.365Z,20
2018-03-18T05:01:45.779Z,20
2018-03-18T05:02:48.508Z,24
2018-03-18T05:03:50.920Z,28
2018-03-18T05:04:53.337Z,32
2018-03-18T05:05:56.023Z,44
2018-03-18T05:06:58.447Z,48
2018-03-18T05:08:00.850Z,56
2018-03-18T05:09:03.550Z,68
2018-03-18T05:10:05.961Z,76
2018-03-18T05:11:08.366Z,92
2018-03-18T05:12:11.071Z,104
2018-03-18T05:13:13.772Z,120
2018-03-18T05:14:16.180Z,136
2018-03-18T05:15:18.595Z,156
2018-03-18T05:16:21.295Z,172
2018-03-18T05:17:23.700Z,196
2018-03-18T05:18:26.110Z,220
2018-03-18T05:19:28.529Z,244
2018-03-18T05:20:31.216Z,272
2018-03-18T05:21:33.635Z,304
2018-03-18T05:22:36.048Z,336
2018-03-18T05:23:38.462Z,368
2018-03-18T05:24:41.159Z,404
2018-03-18T05:25:43.857Z,444
2018-03-18T05:26:46.576Z,484
2018-03-18T05:27:48.990Z,528
2018-03-18T05:28:51.406Z,572
2018-03-18T05:29:53.814Z,616
2018-03-18T05:30:56.227Z,664
2018-03-18T05:31:58.648Z,712
2018-03-18T05:33:01.341Z,764
2018-03-18T05:34:03.763Z,816
2018-03-18T05:35:06.170Z,868
2018-03-18T05:36:08.867Z,924
2018-03-18T05:37:11.282Z,980
2018-03-18T05:38:13.695Z,1036
2018-03-18T05:39:16.401Z,1096
2018-03-18T05:40:18.817Z,1156
2018-03-18T05:41:21.228Z,1216
2018-03-18T05:42:23.641Z,1276
2018-03-18T05:43:26.055Z,1336
2018-03-18T05:44:28.758Z,1396
2018-03-18T05:45:31.469Z,1460
2018-03-18T05:46:33.884Z,1520
2018-03-18T05:47:36.303Z,1584
2018-03-18T05:48:38.716Z,1644
2018-03-18T05:49:41.133Z,1704
2018-03-18T05:50:43.544Z,1764
2018-03-18T05:51:46.263Z,1824
2018-03-18T05:52:48.672Z,1888
2018-03-18T05:53:51.378Z,1948
2018-03-18T05:54:54.070Z,2012
2018-03-18T05:55:56.499Z,2072
2018-03-18T05:56:59.202Z,2132
2018-03-18T05:58:01.598Z,2188
2018-03-18T05:59:04.017Z,2248
2018-03-18T06:00:06.426Z,2300
2018-03-18T06:01:08.845Z,2360
2018-03-18T06:02:11.258Z,2420
2018-03-18T06:03:14.249Z,2468
2018-03-18T06:04:16.662Z,2528
2018-03-18T06:05:19.367Z,2588
2018-03-18T06:06:21.782Z,2636
2018-03-18T06:07:24.182Z,2696
2018-03-18T06:08:26.595Z,2748
2018-03-18T06:09:29.004Z,2800
2018-03-18T06:10:31.429Z,2852
2018-03-18T06:11:33.857Z,2904
2018-03-18T06:12:36.257Z,2956
2018-03-18T06:13:38.974Z,3008
2018-03-18T06:14:41.391Z,3060
2018-03-18T06:15:43.810Z,3108
2018-03-18T06:16:46.229Z,3164
2018-03-18T06:17:48.640Z,3208
2018-03-18T06:18:51.053Z,3264
2018-03-18T06:19:53.459Z,3312
2018-03-18T06:20:55.878Z,3352
2018-03-18T06:21:58.279Z,3404
2018-03-18T06:23:00.702Z,3444
2018-03-18T06:24:03.117Z,3496
2018-03-18T06:25:05.532Z,3536
2018-03-18T06:26:07.955Z,3588
2018-03-18T06:27:10.362Z,3628
2018-03-18T06:28:12.779Z,3676
2018-03-18T06:29:15.488Z,3720
2018-03-18T06:30:17.907Z,3764
2018-03-18T06:31:20.317Z,3804
2018-03-18T06:32:22.739Z,3848
2018-03-18T06:33:25.150Z,3896
2018-03-18T06:34:27.559Z,3928
2018-03-18T06:35:30.255Z,3968
2018-03-18T06:36:32.662Z,4016
2018-03-18T06:37:35.092Z,4056
2018-03-18T06:38:37.502Z,4096
2018-03-18T06:39:39.915Z,4140
2018-03-18T06:40:42.330Z,4180
2018-03-18T06:41:44.744Z,4228
2018-03-18T06:42:47.156Z,4260
2018-03-18T06:43:49.559Z,4292
2018-03-18T06:44:51.967Z,4336
2018-03-18T06:45:54.525Z,4380
2018-03-18T06:46:57.451Z,4416
2018-03-18T06:48:00.250Z,4460
2018-03-18T06:49:02.890Z,4488
2018-03-18T06:50:06.042Z,4528
2018-03-18T06:51:08.462Z,4564
2018-03-18T06:52:11.210Z,4608
2018-03-18T06:53:13.611Z,4640
2018-03-18T06:54:16.025Z,4680
2018-03-18T06:55:18.440Z,4712
2018-03-18T06:56:21.138Z,4756
2018-03-18T06:57:23.563Z,4784
2018-03-18T06:58:25.975Z,4824
2018-03-18T06:59:28.391Z,4864
2018-03-18T07:00:30.813Z,4900
2018-03-18T07:01:33.510Z,4936
2018-03-18T07:02:35.929Z,4976
2018-03-18T07:03:38.643Z,5016
2018-03-18T07:04:41.043Z,5048
2018-03-18T07:05:43.469Z,5080
2018-03-18T07:06:45.886Z,5124
2018-03-18T07:07:48.301Z,5152
2018-03-18T07:08:50.702Z,5180
2018-03-18T07:09:53.135Z,5212
2018-03-18T07:10:55.837Z,5256
2018-03-18T07:11:58.247Z,5300
2018-03-18T07:13:00.949Z,5336
2018-03-18T07:14:03.648Z,5372
2018-03-18T07:15:06.064Z,5420
2018-03-18T07:16:08.477Z,5444
2018-03-18T07:17:10.885Z,5496
2018-03-18T07:18:13.301Z,5536
2018-03-18T07:19:15.718Z,5556
2018-03-18T07:20:18.128Z,5588
2018-03-18T07:21:20.540Z,5628
2018-03-18T07:22:22.950Z,5680
2018-03-18T07:23:25.370Z,5704
2018-03-18T07:24:27.791Z,5744
2018-03-18T07:25:30.222Z,5764
2018-03-18T07:26:32.618Z,5804
2018-03-18T07:27:35.037Z,5852
2018-03-18T07:28:37.465Z,5880
2018-03-18T07:29:39.873Z,5916
2018-03-18T07:30:42.286Z,5948
2018-03-18T07:31:45.006Z,5976
2018-03-18T07:32:47.708Z,6020
2018-03-18T07:33:50.120Z,6056
2018-03-18T07:34:52.541Z,6080
2018-03-18T07:35:54.937Z,6124
2018-03-18T07:36:57.359Z,6148
2018-03-18T07:38:00.087Z,6212
2018-03-18T07:39:02.494Z,6224
2018-03-18T07:40:04.914Z,6276
2018-03-18T07:41:07.331Z,6316
2018-03-18T07:42:09.751Z,6344
2018-03-18T07:43:12.470Z,6560
2018-03-18T07:44:14.881Z,6816
2018-03-18T07:45:17.299Z,7040
2018-03-18T07:46:20.004Z,8276
2018-03-18T07:47:22.423Z,15180
2018-03-18T07:48:24.839Z,29728
2018-03-18T07:49:27.254Z,41888
2018-03-18T07:50:29.702Z,44576
2018-03-18T07:51:32.406Z,47360
2018-03-18T07:52:34.821Z,53824
2018-03-18T07:53:37.540Z,47424
2018-03-18T07:54:39.954Z,39872
2018-03-18T07:55:42.373Z,36192
2018-03-18T07:56:44.789Z,39424
2018-03-18T07:57:47.205Z,51200
2018-03-18T07:58:49.626Z,53856
2018-03-18T07:59:52.626Z,47136
2018-03-18T08:00:55.030Z,48160
2018-03-18T08:01:57.537Z,49472
2018-03-18T08:02:59.880Z,51008
2018-03-18T08:04:02.590Z,51296
2018-03-18T08:05:05.299Z,45440
2018-03-18T08:06:07.999Z,38144
2018-03-18T08:07:10.422Z,33408
2018-03-18T08:08:13.132Z,43744
2018-03-18T08:09:15.535Z,51328
2018-03-18T08:10:17.956Z,44512
2018-03-18T08:11:20.663Z,37472
2018-03-18T08:12:23.085Z,27776
2018-03-18T08:13:25.501Z,28576
2018-03-18T08:14:27.920Z,45024
2018-03-18T08:15:30.342Z,54912
2018-03-18T08:16:32.765Z,49440
2018-03-18T08:17:35.183Z,48256
2018-03-18T08:18:37.603Z,45024
2018-03-18T08:19:40.020Z,45312
2018-03-18T08:20:42.443Z,49760
2018-03-18T08:21:44.859Z,54016
2018-03-18T08:22:47.586Z,50304
2018-03-18T08:23:49.993Z,43968
2018-03-18T08:24:52.411Z,48032
2018-03-18T08:25:55.121Z,51712
2018-03-18T08:26:57.541Z,57120
2018-03-18T08:27:59.962Z,57760
2018-03-18T08:29:02.674Z,64800
2018-03-18T08:30:05.092Z,65216
2018-03-18T08:31:07.525Z,64512
2018-03-18T08:32:09.951Z,65152
2018-03-18T08:33:12.377Z,65696
2018-03-18T08:34:14.827Z,67456
2018-03-18T08:35:17.541Z,74368
2018-03-18T08:36:19.966Z,69504
2018-03-18T08:37:22.384Z,51936
2018-03-18T08:38:24.809Z,48736
2018-03-18T08:39:27.516Z,46560
2018-03-18T08:40:29.942Z,47488
2018-03-18T08:41:32.362Z,53120
2018-03-18T08:42:35.080Z,57120
2018-03-18T08:43:37.507Z,61920
2018-03-18T08:44:39.928Z,66656
2018-03-18T08:45:42.354Z,69792
2018-03-18T08:46:44.802Z,74464
2018-03-18T08:47:47.197Z,84544
2018-03-18T08:48:49.624Z,82752
2018-03-18T08:49:52.043Z,69760
2018-03-18T08:50:54.462Z,62944
2018-03-18T08:51:56.902Z,66880
2018-03-18T08:52:59.608Z,63968
2018-03-18T08:54:02.029Z,59360
2018-03-18T08:55:04.454Z,56896
2018-03-18T08:56:06.876Z,65728
2018-03-18T08:57:09.313Z,63392
2018-03-18T08:58:12.196Z,60480
2018-03-18T08:59:14.567Z,62880
2018-03-18T09:00:17.019Z,62912
2018-03-18T09:01:19.519Z,75392
2018-03-18T09:02:21.891Z,77248
2018-03-18T09:03:24.317Z,77344
2018-03-18T09:04:26.737Z,76256
2018-03-18T09:05:29.162Z,73216
2018-03-18T09:06:31.928Z,77760
2018-03-18T09:07:34.945Z,86400
2018-03-18T09:08:37.627Z,84448
2018-03-18T09:09:40.670Z,100128
2018-03-18T09:10:43.553Z,81024
2018-03-18T09:11:46.690Z,70272
2018-03-18T09:12:51.259Z,70816
2018-03-18T09:13:54.384Z,69056
2018-03-18T09:14:57.950Z,75136
2018-03-18T09:16:00.672Z,70688
2018-03-18T09:17:03.102Z,77504
2018-03-18T09:18:05.512Z,67488
2018-03-18T09:19:07.949Z,66016
2018-03-18T09:20:10.660Z,67456
2018-03-18T09:21:13.398Z,58784
2018-03-18T09:22:15.833Z,56096
2018-03-18T09:23:18.528Z,58752
2018-03-18T09:24:20.946Z,59008
2018-03-18T09:25:23.378Z,57184
2018-03-18T09:26:25.800Z,59360
2018-03-18T09:27:28.227Z,58080
2018-03-18T09:28:30.654Z,60768
2018-03-18T09:29:33.080Z,64320
2018-03-18T09:30:35.519Z,69856
2018-03-18T09:31:37.946Z,71360
2018-03-18T09:32:40.368Z,71840
2018-03-18T09:33:42.795Z,72480
2018-03-18T09:34:45.516Z,65760
2018-03-18T09:35:47.948Z,65856
2018-03-18T09:36:50.366Z,65728
2018-03-18T09:37:52.799Z,68512
2018-03-18T09:38:55.221Z,68512
2018-03-18T09:39:57.646Z,66464
2018-03-18T09:41:00.077Z,74688
2018-03-18T09:42:02.504Z,82592
2018-03-18T09:43:05.223Z,89248
2018-03-18T09:44:07.646Z,89728
2018-03-18T09:45:10.356Z,86848
2018-03-18T09:46:13.075Z,83552
2018-03-18T09:47:15.497Z,76768
2018-03-18T09:48:18.521Z,76704
2018-03-18T09:49:21.306Z,78464
2018-03-18T09:50:23.721Z,78496
2018-03-18T09:51:26.157Z,72032
2018-03-18T09:52:28.586Z,70432
2018-03-18T09:53:31.006Z,69824
2018-03-18T09:54:33.430Z,74240
2018-03-18T09:55:35.858Z,71904
2018-03-18T09:56:38.289Z,70816
2018-03-18T09:57:40.722Z,69152
2018-03-18T09:58:43.435Z,67616
2018-03-18T09:59:45.863Z,76672
2018-03-18T10:00:48.288Z,78144
2018-03-18T10:01:50.718Z,59648
2018-03-18T10:02:53.141Z,66976
2018-03-18T10:03:55.565Z,70048
2018-03-18T10:04:57.991Z,75456
2018-03-18T10:06:00.728Z,75936
2018-03-18T10:07:03.445Z,82528
2018-03-18T10:08:05.874Z,81664
2018-03-18T10:09:08.599Z,80160
2018-03-18T10:10:11.033Z,86208
2018-03-18T10:11:13.457Z,88032
2018-03-18T10:12:15.885Z,94368
2018-03-18T10:13:18.309Z,84064
2018-03-18T10:14:20.732Z,81152
2018-03-18T10:15:23.162Z,82016
2018-03-18T10:16:25.788Z,90176
2018-03-18T10:17:28.231Z,92800
2018-03-18T10:18:30.652Z,94208
2018-03-18T10:19:33.395Z,89184
2018-03-18T10:20:36.114Z,83968
2018-03-18T10:21:39.118Z,83776
2018-03-18T10:22:41.544Z,78880
2018-03-18T10:23:43.978Z,72640
2018-03-18T10:24:46.409Z,72928
2018-03-18T10:25:48.837Z,79936
2018-03-18T10:26:51.274Z,85504
2018-03-18T10:27:53.697Z,87360
2018-03-18T10:28:56.428Z,105632
2018-03-18T10:29:59.146Z,99392
2018-03-18T10:31:01.866Z,92736
2018-03-18T10:32:04.608Z,90080
2018-03-18T10:33:07.031Z,96608
2018-03-18T10:34:09.465Z,108896
2018-03-18T10:35:11.893Z,112096
2018-03-18T10:36:14.612Z,121056
2018-03-18T10:37:17.051Z,114720
2018-03-18T10:38:19.753Z,99200
2018-03-18T10:39:22.192Z,109088
2018-03-18T10:40:24.637Z,107136
2018-03-18T10:41:27.344Z,116960
2018-03-18T10:42:29.781Z,117376
2018-03-18T10:43:32.209Z,112384
2018-03-18T10:44:34.645Z,106464
2018-03-18T10:45:37.084Z,102912
2018-03-18T10:46:39.520Z,107264
2018-03-18T10:47:41.942Z,101984
2018-03-18T10:48:44.384Z,98336
2018-03-18T10:49:47.159Z,101952
2018-03-18T10:50:49.866Z,102432
2018-03-18T10:51:52.299Z,99872
2018-03-18T10:52:54.734Z,107232
2018-03-18T10:53:57.459Z,108160
2018-03-18T10:55:00.187Z,109440
2018-03-18T10:56:02.612Z,107552
2018-03-18T10:57:05.045Z,116256
2018-03-18T10:58:07.476Z,111584
2018-03-18T10:59:09.917Z,103744
2018-03-18T11:00:12.630Z,107136
2018-03-18T11:01:15.065Z,110688
2018-03-18T11:02:17.485Z,107424
2018-03-18T11:03:20.233Z,100544
2018-03-18T11:04:22.657Z,95904
2018-03-18T11:05:25.087Z,92736
2018-03-18T11:06:27.510Z,87136
2018-03-18T11:07:29.944Z,84256
2018-03-18T11:08:32.366Z,93088
2018-03-18T11:09:34.808Z,93120
2018-03-18T11:10:37.237Z,95840
2018-03-18T11:11:39.972Z,96416
2018-03-18T11:12:42.391Z,98208
2018-03-18T11:13:44.833Z,94624
2018-03-18T11:14:47.255Z,86336
2018-03-18T11:15:49.685Z,87872
2018-03-18T11:16:52.125Z,96096
2018-03-18T11:17:54.839Z,102176
2018-03-18T11:18:57.272Z,96576
2018-03-18T11:20:00.276Z,95552
2018-03-18T11:21:02.701Z,92448
2018-03-18T11:22:05.145Z,99488
2018-03-18T11:23:07.569Z,101728
2018-03-18T11:24:10.001Z,86176
2018-03-18T11:25:12.428Z,87584
2018-03-18T11:26:14.867Z,93728
2018-03-18T11:27:17.291Z,94976
2018-03-18T11:28:19.738Z,98016
2018-03-18T11:29:22.445Z,100576
2018-03-18T11:30:24.889Z,100640
2018-03-18T11:31:27.314Z,103584
2018-03-18T11:32:29.742Z,103136
2018-03-18T11:33:32.175Z,101824
2018-03-18T11:34:34.789Z,104320
2018-03-18T11:35:37.878Z,106560
2018-03-18T11:36:42.314Z,105184
2018-03-18T11:37:45.490Z,104192
2018-03-18T11:38:49.921Z,103680
2018-03-18T11:39:54.267Z,96032
2018-03-18T11:40:56.692Z,96192
2018-03-18T11:41:59.419Z,101984
2018-03-18T11:43:01.850Z,91872
2018-03-18T11:44:04.287Z,87840
2018-03-18T11:45:06.718Z,85984
2018-03-18T11:46:09.434Z,81760
2018-03-18T11:47:11.865Z,85984
2018-03-18T11:48:14.298Z,96992
2018-03-18T11:49:17.013Z,101120
2018-03-18T11:50:19.439Z,97632
2018-03-18T11:51:21.865Z,96960
2018-03-18T11:52:24.290Z,98048
2018-03-18T11:53:26.736Z,102592
2018-03-18T11:54:29.163Z,106688
2018-03-18T11:55:31.583Z,106560
2018-03-18T11:56:34.020Z,103456
2018-03-18T11:57:36.461Z,99552
2018-03-18T11:58:38.891Z,98144
2018-03-18T11:59:41.327Z,104512
2018-03-18T12:00:43.752Z,113344
2018-03-18T12:01:46.174Z,96608
2018-03-18T12:02:48.625Z,86432
2018-03-18T12:03:51.050Z,91936
2018-03-18T12:04:53.762Z,93888
2018-03-18T12:05:56.198Z,83968
2018-03-18T12:06:58.625Z,78112
2018-03-18T12:08:01.056Z,85952
2018-03-18T12:09:03.492Z,96544
2018-03-18T12:10:06.239Z,94560
2018-03-18T12:11:08.968Z,84288
2018-03-18T12:12:11.394Z,79616
2018-03-18T12:13:14.112Z,82304
2018-03-18T12:14:16.831Z,88096
2018-03-18T12:15:19.264Z,88224
2018-03-18T12:16:21.695Z,89440
2018-03-18T12:17:24.121Z,88320
2018-03-18T12:18:26.545Z,93568
2018-03-18T12:19:29.047Z,106912
2018-03-18T12:20:31.405Z,111488
2018-03-18T12:21:33.847Z,114240
2018-03-18T12:22:36.273Z,103776
2018-03-18T12:23:38.702Z,99392
2018-03-18T12:24:41.423Z,103968
2018-03-18T12:25:43.856Z,106080
2018-03-18T12:26:46.283Z,106368
2018-03-18T12:27:48.723Z,108832
2018-03-18T12:28:51.444Z,99904
2018-03-18T12:29:53.883Z,101920
2018-03-18T12:30:56.361Z,99680
2018-03-18T12:31:59.992Z,103168
2018-03-18T12:33:02.487Z,92032
2018-03-18T12:34:06.131Z,79808
2018-03-18T12:35:09.932Z,86592
2018-03-18T12:36:13.170Z,96768
2018-03-18T12:37:15.609Z,105760
2018-03-18T12:38:18.337Z,110336
2018-03-18T12:39:20.772Z,108864
2018-03-18T12:40:23.210Z,104320
2018-03-18T12:41:25.637Z,94400
2018-03-18T12:42:28.067Z,96992
2018-03-18T12:43:30.801Z,94272
2018-03-18T12:44:33.235Z,84704
2018-03-18T12:45:35.655Z,88896
2018-03-18T12:46:38.089Z,95008
2018-03-18T12:47:40.522Z,102816
2018-03-18T12:48:42.954Z,110944
2018-03-18T12:49:45.390Z,109312
2018-03-18T12:50:47.815Z,113728
2018-03-18T12:51:50.247Z,118752
2018-03-18T12:52:52.692Z,106944
2018-03-18T12:53:55.125Z,102880
2018-03-18T12:54:57.548Z,98336
2018-03-18T12:55:59.986Z,89504
2018-03-18T12:57:02.712Z,86624
2018-03-18T12:58:05.144Z,87232
2018-03-18T12:59:07.864Z,90144
2018-03-18T13:00:10.289Z,97184
2018-03-18T13:01:12.718Z,94400
2018-03-18T13:02:15.172Z,83168
2018-03-18T13:03:17.605Z,78176
2018-03-18T13:04:20.325Z,81696
2018-03-18T13:05:22.762Z,80000
2018-03-18T13:06:25.201Z,88320
2018-03-18T13:07:27.624Z,85088
2018-03-18T13:08:30.053Z,79424
2018-03-18T13:09:32.506Z,92448
2018-03-18T13:10:34.936Z,80576
2018-03-18T13:11:37.411Z,73312
2018-03-18T13:12:39.813Z,91104
2018-03-18T13:13:42.246Z,87872
2018-03-18T13:14:44.686Z,71424
2018-03-18T13:15:47.127Z,82240
2018-03-18T13:16:49.568Z,98208
2018-03-18T13:17:51.991Z,94688
2018-03-18T13:18:54.448Z,70720
2018-03-18T13:19:57.162Z,70624
2018-03-18T13:20:59.602Z,76992
2018-03-18T13:22:02.032Z,82976
2018-03-18T13:23:04.473Z,100768
2018-03-18T13:24:07.219Z,49856
2018-03-18T13:25:09.660Z,65728
2018-03-18T13:26:12.086Z,84224
2018-03-18T13:27:14.524Z,107392
2018-03-18T13:28:16.954Z,78400
2018-03-18T13:29:19.391Z,85280
2018-03-18T13:30:21.833Z,87808
2018-03-18T13:31:24.269Z,80128
2018-03-18T13:32:26.702Z,79136
2018-03-18T13:33:29.144Z,81408
2018-03-18T13:34:31.876Z,80448
2018-03-18T13:35:34.308Z,78688
2018-03-18T13:36:36.741Z,78432
2018-03-18T13:37:39.460Z,77440
2018-03-18T13:38:42.186Z,84608
2018-03-18T13:39:44.612Z,81184
2018-03-18T13:40:47.055Z,87200
2018-03-18T13:41:49.479Z,89856
2018-03-18T13:42:52.198Z,67264
2018-03-18T13:43:54.626Z,70144
2018-03-18T13:44:57.071Z,72192
2018-03-18T13:45:59.506Z,66080
2018-03-18T13:47:01.945Z,64544
2018-03-18T13:48:04.381Z,56512
2018-03-18T13:49:06.812Z,51392
2018-03-18T13:50:09.254Z,60320
2018-03-18T13:51:11.686Z,61472
2018-03-18T13:52:14.121Z,56000
2018-03-18T13:53:16.558Z,50656
2018-03-18T13:54:18.983Z,40416
2018-03-18T13:55:21.421Z,22624
2018-03-18T13:56:24.147Z,47744
2018-03-18T13:57:26.583Z,39168
2018-03-18T13:58:29.016Z,41888
2018-03-18T13:59:31.452Z,48000
2018-03-18T14:00:33.874Z,51968
2018-03-18T14:01:36.322Z,33632
2018-03-18T14:02:38.746Z,53888
2018-03-18T14:03:41.182Z,34048
2018-03-18T14:04:43.612Z,43040
2018-03-18T14:05:46.040Z,36000
2018-03-18T14:06:48.481Z,36064
2018-03-18T14:07:51.201Z,45792
2018-03-18T14:08:53.908Z,50368